createdAt,value
2022-08-20T00:02:16.719Z,100909.00
2022-08-20T00:04:46.367Z,100909.38
2022-08-20T00:07:16.643Z,100910.84
2022-08-20T00:09:44.531Z,100917.81
2022-08-20T00:12:13.701Z,100921.75
2022-08-20T00:14:43.173Z,100921.94
2022-08-20T00:17:12.130Z,100910.56
2022-08-20T00:19:39.018Z,100921.59
2022-08-20T00:22:06.105Z,100927.72
2022-08-20T00:24:33.026Z,100924.00
2022-08-20T00:27:02.703Z,100912.34
2022-08-20T00:29:31.795Z,100905.63
2022-08-20T00:32:01.408Z,100902.59
2022-08-20T00:34:28.972Z,100907.97
2022-08-20T00:36:55.868Z,100901.97
2022-08-20T00:39:22.858Z,100910.16
2022-08-20T00:41:51.950Z,100914.75
2022-08-20T00:44:22.834Z,100921.88
2022-08-20T00:46:53.550Z,100915.44
2022-08-20T00:49:33.555Z,100917.81
2022-08-20T00:52:22.041Z,100917.22
2022-08-20T00:54:59.396Z,100920.19
2022-08-20T00:57:58.917Z,100926.78
2022-08-20T01:00:38.287Z,100928.75
2022-08-20T01:03:16.513Z,100935.94
2022-08-20T01:05:51.346Z,100935.94
2022-08-20T01:08:24.626Z,100930.16
2022-08-20T01:11:14.349Z,100941.03
2022-08-20T01:13:46.569Z,100941.72
2022-08-20T01:16:26.647Z,100947.69
2022-08-20T01:18:57.674Z,100948.53
2022-08-20T01:21:28.831Z,100943.56
2022-08-20T01:24:22.644Z,100949.91
2022-08-20T01:26:50.101Z,100947.47
2022-08-20T01:29:28.662Z,100947.16
2022-08-20T01:32:01.251Z,100948.38
2022-08-20T01:34:30.789Z,100949.59
2022-08-20T01:36:59.320Z,100951.75
2022-08-20T01:39:36.414Z,100951.50
2022-08-20T01:42:15.379Z,100961.91
2022-08-20T01:44:50.036Z,100960.31
2022-08-20T01:47:27.019Z,100964.91
2022-08-20T01:49:59.961Z,100963.66
2022-08-20T01:52:33.257Z,100967.88
2022-08-20T01:55:00.203Z,100965.66
2022-08-20T01:57:32.207Z,100955.94
2022-08-20T02:00:07.194Z,100957.38
2022-08-20T02:02:36.231Z,100944.84
2022-08-20T02:05:06.213Z,100948.16
2022-08-20T02:07:37.673Z,100949.91
2022-08-20T02:10:10.925Z,100948.06
2022-08-20T02:12:39.861Z,100949.28
2022-08-20T02:15:10.399Z,100951.28
2022-08-20T02:17:39.235Z,100952.19
2022-08-20T02:20:37.913Z,100966.13
2022-08-20T02:23:06.071Z,100965.06
2022-08-20T02:25:36.635Z,100961.22
2022-08-20T02:28:09.238Z,100961.22
2022-08-20T02:30:46.972Z,100959.25
2022-08-20T02:33:19.635Z,100964.00
2022-08-20T02:35:52.233Z,100973.78
2022-08-20T02:38:22.772Z,100962.16
2022-08-20T02:40:49.996Z,100962.16
2022-08-20T02:43:20.093Z,100960.31
2022-08-20T02:45:49.409Z,100961.00
2022-08-20T02:48:23.336Z,100957.97
2022-08-20T02:50:58.385Z,100960.09
2022-08-20T02:53:36.750Z,100953.72
2022-08-20T02:56:08.516Z,100954.88
2022-08-20T02:58:36.117Z,100963.59
2022-08-20T03:01:06.331Z,100958.03
2022-08-20T03:03:33.781Z,100953.72
2022-08-20T03:06:06.650Z,100950.44
2022-08-20T03:08:34.209Z,100946.63
2022-08-20T03:11:01.061Z,100948.66
2022-08-20T03:13:28.001Z,100955.56
2022-08-20T03:16:00.790Z,100962.31
2022-08-20T03:18:34.414Z,100970.28
2022-08-20T03:21:05.677Z,100966.66
2022-08-20T03:23:36.664Z,100961.66
2022-08-20T03:26:12.948Z,100962.97
2022-08-20T03:28:41.109Z,100964.00
2022-08-20T03:31:08.393Z,100968.81
2022-08-20T03:33:39.428Z,100972.50
2022-08-20T03:36:22.104Z,100971.19
2022-08-20T03:38:59.152Z,100967.44
2022-08-20T03:41:28.998Z,100968.91
2022-08-20T03:44:01.127Z,100970.66
2022-08-20T03:46:28.780Z,100970.13
2022-08-20T03:48:59.541Z,100969.19
2022-08-20T03:51:31.069Z,100977.13
2022-08-20T03:53:58.552Z,100980.03
2022-08-20T03:56:31.681Z,100987.91
2022-08-20T03:59:03.540Z,100989.53
2022-08-20T04:01:44.477Z,100991.53
2022-08-20T04:04:15.545Z,100988.19
2022-08-20T04:06:43.626Z,100990.13
2022-08-20T04:09:13.773Z,100982.06
2022-08-20T04:11:42.378Z,100993.22
2022-08-20T04:14:19.525Z,100983.78
2022-08-20T04:16:47.584Z,100987.81
2022-08-20T04:19:16.496Z,100997.06
2022-08-20T04:21:48.600Z,100992.75
2022-08-20T04:24:22.614Z,100995.19
2022-08-20T04:26:59.850Z,100994.72
2022-08-20T04:29:32.297Z,100993.03
2022-08-20T04:32:02.767Z,100998.97
2022-08-20T04:34:33.718Z,101002.72
2022-08-20T04:37:00.734Z,100998.09
2022-08-20T04:39:32.279Z,100999.63
2022-08-20T04:42:03.849Z,100997.16
2022-08-20T04:44:30.712Z,101010.81
2022-08-20T04:46:59.771Z,101002.41
2022-08-20T04:49:29.163Z,101006.97
2022-08-20T04:51:59.489Z,101009.34
2022-08-20T04:54:26.486Z,101013.91
2022-08-20T04:56:53.408Z,101017.34
2022-08-20T04:59:20.265Z,101019.22
2022-08-20T05:01:49.672Z,101019.69
2022-08-20T05:04:16.622Z,101022.59
2022-08-20T05:06:43.516Z,101021.81
2022-08-20T05:09:10.371Z,101020.56
2022-08-20T05:11:37.334Z,101020.63
2022-08-20T05:14:08.968Z,101018.47
2022-08-20T05:16:40.932Z,101016.78
2022-08-20T05:19:12.242Z,101011.66
2022-08-20T05:21:40.281Z,101007.22
2022-08-20T05:24:10.165Z,101006.28
2022-08-20T05:26:37.172Z,101007.97
2022-08-20T05:29:07.558Z,101016.25
2022-08-20T05:31:35.171Z,101011.06
2022-08-20T05:34:09.578Z,101010.25
2022-08-20T05:36:49.068Z,101020.00
2022-08-20T05:39:18.404Z,101013.75
2022-08-20T05:41:45.683Z,101011.59
2022-08-20T05:44:14.227Z,101007.53
2022-08-20T05:46:43.879Z,101011.16
2022-08-20T05:49:15.597Z,101013.78
2022-08-20T05:51:43.859Z,101017.84
2022-08-20T05:54:11.340Z,101015.69
2022-08-20T05:56:41.381Z,101020.47
2022-08-20T05:59:13.985Z,101018.47
2022-08-20T06:01:46.650Z,101018.41
2022-08-20T06:04:24.912Z,101025.53
2022-08-20T06:07:04.205Z,101030.97
2022-08-20T06:09:32.781Z,101027.50
2022-08-20T06:12:07.716Z,101030.13
2022-08-20T06:14:35.427Z,101030.59
2022-08-20T06:17:15.363Z,101028.69
2022-08-20T06:19:44.729Z,101027.13
2022-08-20T06:22:19.571Z,101029.50
2022-08-20T06:24:55.715Z,101041.06
2022-08-20T06:27:26.132Z,101032.19
2022-08-20T06:29:56.027Z,101029.06
2022-08-20T06:32:28.773Z,101039.16
2022-08-20T06:35:02.170Z,101040.84
2022-08-20T06:37:36.546Z,101041.91
2022-08-20T06:40:10.235Z,101048.66
2022-08-20T06:42:47.771Z,101049.97
2022-08-20T06:45:19.178Z,101047.94
2022-08-20T06:47:47.606Z,101056.09
2022-08-20T06:50:20.346Z,101045.81
2022-08-20T06:52:51.877Z,101046.53
2022-08-20T06:55:26.228Z,101053.25
2022-08-20T06:58:35.792Z,101053.25
2022-08-20T07:01:09.096Z,101068.03
2022-08-20T07:03:38.310Z,101064.19
2022-08-20T07:06:08.390Z,101059.41
2022-08-20T07:08:38.288Z,101065.41
2022-08-20T07:11:07.158Z,101065.63
2022-08-20T07:13:40.925Z,101071.25
2022-08-20T07:16:10.236Z,101067.31
2022-08-20T07:18:41.811Z,101070.81
2022-08-20T07:21:12.166Z,101072.09
2022-08-20T07:23:39.048Z,101073.88
2022-08-20T07:26:08.097Z,101068.81
2022-08-20T07:28:34.966Z,101082.69
2022-08-20T07:31:20.517Z,101080.97
2022-08-20T07:33:50.214Z,101079.59
2022-08-20T07:36:20.342Z,101083.25
2022-08-20T07:38:52.628Z,101092.56
2022-08-20T07:41:20.866Z,101083.38
2022-08-20T07:43:52.407Z,101091.19
2022-08-20T07:46:23.769Z,101093.28
2022-08-20T07:49:00.360Z,101090.44
2022-08-20T07:51:32.806Z,101095.75
2022-08-20T07:54:02.047Z,101093.31
2022-08-20T07:56:29.549Z,101089.78
2022-08-20T07:59:01.546Z,101086.78
2022-08-20T08:01:31.299Z,101092.38
2022-08-20T08:03:59.700Z,101103.31
2022-08-20T08:06:31.023Z,101096.00
2022-08-20T08:09:08.716Z,101087.78
2022-08-20T08:11:39.772Z,101091.19
2022-08-20T08:14:11.562Z,101085.41
2022-08-20T08:16:45.343Z,101091.53
2022-08-20T08:19:15.020Z,101092.63
2022-08-20T08:21:43.492Z,101098.41
2022-08-20T08:24:12.680Z,101091.88
2022-08-20T08:26:41.322Z,101091.31
2022-08-20T08:29:08.208Z,101099.63
2022-08-20T08:31:35.408Z,101097.56
2022-08-20T08:34:02.357Z,101108.22
2022-08-20T08:36:29.262Z,101104.44
2022-08-20T08:38:56.622Z,101105.53
2022-08-20T08:41:57.285Z,101108.56
2022-08-20T08:44:36.008Z,101092.88
2022-08-20T08:47:18.501Z,101103.34
2022-08-20T08:49:47.570Z,101106.56
2022-08-20T08:52:34.439Z,101104.25
2022-08-20T08:55:06.443Z,101110.69
2022-08-20T08:57:34.286Z,101110.38
2022-08-20T09:00:17.262Z,101118.47
2022-08-20T09:03:04.507Z,101113.09
2022-08-20T09:05:51.384Z,101118.25
2022-08-20T09:08:25.667Z,101124.34
2022-08-20T09:10:52.576Z,101114.63
2022-08-20T09:13:22.327Z,101119.78
2022-08-20T09:15:52.207Z,101127.75
2022-08-20T09:18:21.534Z,101117.22
2022-08-20T09:20:50.569Z,101123.00
2022-08-20T09:23:22.237Z,101129.16
2022-08-20T09:25:49.441Z,101123.72
2022-08-20T09:28:16.289Z,101131.59
2022-08-20T09:30:46.036Z,101138.00
2022-08-20T09:33:13.860Z,101133.13
2022-08-20T09:35:44.825Z,101128.81
2022-08-20T09:38:16.272Z,101124.25
2022-08-20T09:40:44.466Z,101120.81
2022-08-20T09:43:16.482Z,101127.59
2022-08-20T09:45:43.400Z,101131.63
2022-08-20T09:48:10.666Z,101121.00
2022-08-20T09:50:44.153Z,101121.50
2022-08-20T09:53:11.764Z,101118.44
2022-08-20T09:55:42.726Z,101133.19
2022-08-20T09:58:53.510Z,101125.91
2022-08-20T10:01:25.028Z,101126.50
2022-08-20T10:03:51.962Z,101127.56
2022-08-20T10:06:22.479Z,101132.34
2022-08-20T10:08:52.955Z,101135.16
2022-08-20T10:11:19.928Z,101134.56
2022-08-20T10:13:49.891Z,101134.03
2022-08-20T10:16:16.734Z,101135.47
2022-08-20T10:18:43.595Z,101141.31
2022-08-20T10:21:12.046Z,101141.53
2022-08-20T10:23:38.976Z,101139.81
2022-08-20T10:26:10.103Z,101137.38
2022-08-20T10:28:37.707Z,101133.78
2022-08-20T10:31:12.178Z,101142.13
2022-08-20T10:33:41.121Z,101135.44
2022-08-20T10:36:17.360Z,101133.22
2022-08-20T10:38:48.481Z,101131.88
2022-08-20T10:41:17.939Z,101132.72
2022-08-20T10:43:47.645Z,101138.22
2022-08-20T10:46:17.114Z,101130.22
2022-08-20T10:48:44.329Z,101128.25
2022-08-20T10:51:11.247Z,101134.41
2022-08-20T10:53:38.964Z,101141.09
2022-08-20T10:56:06.103Z,101139.44
2022-08-20T10:58:39.622Z,101142.22
2022-08-20T11:01:09.955Z,101148.63
2022-08-20T11:03:36.913Z,101147.50
2022-08-20T11:06:06.944Z,101146.66
2022-08-20T11:08:36.394Z,101147.78
2022-08-20T11:11:06.860Z,101148.84
2022-08-20T11:13:37.078Z,101149.47
2022-08-20T11:16:07.656Z,101152.53
2022-08-20T11:18:37.028Z,101153.94
2022-08-20T11:21:04.068Z,101151.00
2022-08-20T11:23:33.947Z,101154.19
2022-08-20T11:26:00.939Z,101156.47
2022-08-20T11:28:32.380Z,101157.50
2022-08-20T11:31:00.939Z,101154.13
2022-08-20T11:33:28.119Z,101153.13
2022-08-20T11:35:55.052Z,101155.88
2022-08-20T11:38:21.968Z,101159.44
2022-08-20T11:40:53.417Z,101148.19
2022-08-20T11:43:20.423Z,101146.41
2022-08-20T11:45:52.841Z,101155.16
2022-08-20T11:48:20.202Z,101146.50
2022-08-20T11:50:48.625Z,101141.28
2022-08-20T11:53:17.823Z,101146.75
2022-08-20T11:55:45.293Z,101145.66
2022-08-20T11:58:14.901Z,101145.50
2022-08-20T12:00:44.020Z,101148.16
2022-08-20T12:03:13.883Z,101149.19
2022-08-20T12:05:46.093Z,101159.53
2022-08-20T12:08:26.442Z,101148.66
2022-08-20T12:11:04.136Z,101152.56
2022-08-20T12:13:47.765Z,101150.44
2022-08-20T12:16:21.282Z,101149.66
2022-08-20T12:18:48.767Z,101156.94
2022-08-20T12:21:20.382Z,101156.69
2022-08-20T12:23:48.127Z,101148.56
2022-08-20T12:26:17.917Z,101141.72
2022-08-20T12:28:44.759Z,101150.69
2022-08-20T12:31:11.640Z,101144.91
2022-08-20T12:33:40.633Z,101148.47
2022-08-20T12:36:07.960Z,101148.66
2022-08-20T12:38:35.242Z,101153.63
2022-08-20T12:41:02.613Z,101148.00
2022-08-20T12:43:29.614Z,101151.38
2022-08-20T12:45:56.493Z,101160.94
2022-08-20T12:48:23.337Z,101153.22
2022-08-20T12:50:54.928Z,101148.22
2022-08-20T12:53:24.804Z,101151.00
2022-08-20T12:55:51.712Z,101152.63
2022-08-20T12:58:19.384Z,101156.00
2022-08-20T13:00:50.701Z,101156.06
2022-08-20T13:03:20.228Z,101159.72
2022-08-20T13:05:48.565Z,101166.69
2022-08-20T13:08:17.574Z,101166.69
2022-08-20T13:10:47.345Z,101162.25
2022-08-20T13:13:19.924Z,101156.06
2022-08-20T13:15:49.068Z,101157.66
2022-08-20T13:18:18.195Z,101155.41
2022-08-20T13:20:48.227Z,101162.94
2022-08-20T13:23:20.221Z,101155.84
2022-08-20T13:25:47.279Z,101159.66
2022-08-20T13:28:16.387Z,101154.84
2022-08-20T13:30:43.324Z,101155.78
2022-08-20T13:33:12.516Z,101151.97
2022-08-20T13:35:41.660Z,101142.59
2022-08-20T13:38:10.958Z,101143.53
2022-08-20T13:40:38.010Z,101144.91
2022-08-20T13:43:07.755Z,101135.66
2022-08-20T13:45:40.769Z,101129.91
2022-08-20T13:48:10.034Z,101126.63
2022-08-20T13:50:42.848Z,101127.69
2022-08-20T13:53:09.717Z,101128.41
2022-08-20T13:55:39.578Z,101128.63
2022-08-20T13:58:10.239Z,101141.50
2022-08-20T14:00:37.897Z,101135.75
2022-08-20T14:03:08.788Z,101139.28
2022-08-20T14:05:36.633Z,101134.13
2022-08-20T14:08:22.767Z,101131.50
2022-08-20T14:10:52.764Z,101140.47
2022-08-20T14:13:27.707Z,101134.47
2022-08-20T14:15:56.467Z,101131.50
2022-08-20T14:18:26.030Z,101135.16
2022-08-20T14:20:52.992Z,101140.59
2022-08-20T14:23:22.290Z,101140.16
2022-08-20T14:25:52.885Z,101146.56
2022-08-20T14:28:23.728Z,101139.69
2022-08-20T14:30:52.821Z,101139.06
2022-08-20T14:33:22.061Z,101144.56
2022-08-20T14:35:52.461Z,101149.78
2022-08-20T14:38:19.551Z,101143.13
2022-08-20T14:40:47.334Z,101142.66
2022-08-20T14:43:14.227Z,101146.28
2022-08-20T14:45:41.139Z,101133.72
2022-08-20T14:48:11.043Z,101138.63
2022-08-20T14:50:39.090Z,101132.00
2022-08-20T14:53:06.629Z,101133.81
2022-08-20T14:55:37.536Z,101137.22
2022-08-20T14:58:12.565Z,101136.22
2022-08-20T15:00:39.944Z,101133.09
2022-08-20T15:03:09.123Z,101140.44
2022-08-20T15:05:39.162Z,101147.41
2022-08-20T15:08:07.604Z,101147.75
2022-08-20T15:10:39.694Z,101136.88
2022-08-20T15:13:07.248Z,101148.94
2022-08-20T15:15:35.013Z,101146.97
2022-08-20T15:18:04.456Z,101146.41
2022-08-20T15:20:34.099Z,101154.47
2022-08-20T15:23:01.965Z,101148.84
2022-08-20T15:25:36.581Z,101141.63
2022-08-20T15:28:11.611Z,101149.19
2022-08-20T15:30:42.344Z,101157.28
2022-08-20T15:33:13.531Z,101160.09
2022-08-20T15:35:40.644Z,101154.78
2022-08-20T15:38:13.130Z,101163.44
2022-08-20T15:40:40.271Z,101158.97
2022-08-20T15:43:07.551Z,101157.16
2022-08-20T15:45:38.158Z,101153.56
2022-08-20T15:48:19.189Z,101158.88
2022-08-20T15:51:28.263Z,101157.22
2022-08-20T15:54:08.478Z,101158.88
2022-08-20T15:56:51.857Z,101164.44
2022-08-20T15:59:47.152Z,101171.44
2022-08-20T16:02:50.925Z,101168.03
2022-08-20T16:05:44.995Z,101171.41
2022-08-20T16:08:33.200Z,101166.97
2022-08-20T16:11:03.211Z,101170.22
2022-08-20T16:13:40.659Z,101165.34
2022-08-20T16:16:17.388Z,101172.00
2022-08-20T16:18:49.750Z,101170.50
2022-08-20T16:21:21.437Z,101169.97
2022-08-20T16:23:49.592Z,101179.22
2022-08-20T16:26:53.679Z,101189.44
2022-08-20T16:29:39.949Z,101186.53
2022-08-20T16:32:18.895Z,101191.78
2022-08-20T16:34:56.916Z,101192.88
2022-08-20T16:37:41.915Z,101197.84
2022-08-20T16:40:49.395Z,101194.56
2022-08-20T16:43:41.011Z,101206.34
2022-08-20T16:46:19.353Z,101204.50
2022-08-20T16:48:56.034Z,101213.09
2022-08-20T16:51:35.018Z,101213.84
2022-08-20T16:54:04.443Z,101211.56
2022-08-20T16:56:57.650Z,101208.78
2022-08-20T16:59:27.016Z,101210.53
2022-08-20T17:02:10.226Z,101210.31
2022-08-20T17:04:50.521Z,101215.66
2022-08-20T17:07:50.685Z,101205.81
2022-08-20T17:10:25.084Z,101218.38
2022-08-20T17:13:28.045Z,101218.91
2022-08-20T17:16:01.221Z,101221.63
2022-08-20T17:18:39.135Z,101209.81
2022-08-20T17:21:23.303Z,101213.56
2022-08-20T17:24:06.626Z,101204.28
2022-08-20T17:26:45.101Z,101207.81
2022-08-20T17:29:19.278Z,101213.75
2022-08-20T17:31:53.042Z,101211.53
2022-08-20T17:34:24.880Z,101212.56
2022-08-20T17:37:08.170Z,101215.00
2022-08-20T17:39:44.823Z,101209.78
2022-08-20T17:42:26.165Z,101216.66
2022-08-20T17:45:08.299Z,101215.28
2022-08-20T17:47:40.133Z,101223.34
2022-08-20T17:50:20.753Z,101223.78
2022-08-20T17:52:58.877Z,101221.06
2022-08-20T17:55:26.554Z,101224.22
2022-08-20T17:58:00.717Z,101224.22
2022-08-20T18:00:28.750Z,101229.44
2022-08-20T18:03:13.715Z,101229.16
2022-08-20T18:05:45.556Z,101240.84
2022-08-20T18:09:06.177Z,101233.97
2022-08-20T18:11:42.666Z,101238.00
2022-08-20T18:15:14.629Z,101238.91
2022-08-20T18:18:23.260Z,101244.88
2022-08-20T18:21:15.320Z,101246.63
2022-08-20T18:23:51.921Z,101248.81
2022-08-20T18:26:45.255Z,101253.41
2022-08-20T18:29:18.720Z,101261.16
2022-08-20T18:32:36.976Z,101262.09
2022-08-20T18:35:30.940Z,101268.22
2022-08-20T18:37:58.175Z,101268.34
2022-08-20T18:40:33.575Z,101261.75
2022-08-20T18:43:16.444Z,101266.69
2022-08-20T18:45:43.341Z,101269.09
2022-08-20T18:48:27.025Z,101270.22
2022-08-20T18:50:57.370Z,101262.75
2022-08-20T18:53:34.177Z,101272.66
2022-08-20T18:56:08.788Z,101275.91
2022-08-20T18:58:58.953Z,101274.22
2022-08-20T19:01:26.046Z,101279.75
2022-08-20T19:03:55.808Z,101272.78
2022-08-20T19:07:00.306Z,101273.50
2022-08-20T19:10:04.049Z,101280.13
2022-08-20T19:13:17.166Z,101284.34
2022-08-20T19:15:52.385Z,101278.78
2022-08-20T19:18:54.195Z,101270.84
2022-08-20T19:21:42.321Z,101281.63
2022-08-20T19:24:12.904Z,101279.28
2022-08-20T19:27:01.835Z,101280.22
2022-08-20T19:29:39.244Z,101283.69
2022-08-20T19:32:10.144Z,101286.09
2022-08-20T19:34:37.134Z,101291.69
2022-08-20T19:37:35.824Z,101287.00
2022-08-20T19:40:40.113Z,101295.81
2022-08-20T19:43:19.132Z,101293.66
2022-08-20T19:45:54.687Z,101294.31
2022-08-20T19:48:53.085Z,101288.06
2022-08-20T19:52:00.672Z,101291.88
2022-08-20T19:54:29.455Z,101285.63
2022-08-20T19:57:03.800Z,101289.16
2022-08-20T19:59:30.785Z,101285.34
2022-08-20T20:02:04.020Z,101290.22
2022-08-20T20:04:55.106Z,101290.28
2022-08-20T20:08:02.754Z,101288.13
2022-08-20T20:10:39.434Z,101300.44
2022-08-20T20:13:13.641Z,101293.06
2022-08-20T20:15:43.623Z,101303.66
2022-08-20T20:18:13.765Z,101296.75
2022-08-20T20:20:58.011Z,101304.03
2022-08-20T20:23:45.833Z,101300.22
2022-08-20T20:26:20.243Z,101288.63
2022-08-20T20:29:00.697Z,101295.94
2022-08-20T20:31:43.264Z,101295.69
2022-08-20T20:34:16.307Z,101293.84
2022-08-20T20:36:47.117Z,101298.31
2022-08-20T20:40:19.051Z,101297.22
2022-08-20T20:43:13.395Z,101297.50
2022-08-20T20:45:54.471Z,101295.16
2022-08-20T20:48:42.678Z,101306.81
2022-08-20T20:51:17.751Z,101307.13
2022-08-20T20:53:54.891Z,101299.25
2022-08-20T20:56:31.754Z,101308.38
2022-08-20T20:59:06.132Z,101302.63
2022-08-20T21:01:49.025Z,101303.47
2022-08-20T21:04:21.941Z,101302.38
2022-08-20T21:06:53.653Z,101306.28
2022-08-20T21:09:23.923Z,101301.97
2022-08-20T21:11:51.368Z,101304.22
2022-08-20T21:14:21.245Z,101311.53
2022-08-20T21:16:48.373Z,101305.41
2022-08-20T21:19:16.119Z,101301.69
2022-08-20T21:21:45.671Z,101313.47
2022-08-20T21:24:14.951Z,101304.50
2022-08-20T21:26:44.858Z,101294.66
2022-08-20T21:29:17.394Z,101292.81
2022-08-20T21:31:46.420Z,101303.91
2022-08-20T21:34:15.400Z,101304.94
2022-08-20T21:36:42.896Z,101305.13
2022-08-20T21:39:10.490Z,101309.00
2022-08-20T21:41:40.267Z,101306.25
2022-08-20T21:44:25.487Z,101305.34
2022-08-20T21:46:54.706Z,101295.84
2022-08-20T21:49:25.269Z,101303.41
2022-08-20T21:51:55.053Z,101307.13
2022-08-20T21:54:27.475Z,101304.31
2022-08-20T21:57:04.211Z,101310.44
2022-08-20T21:59:31.874Z,101298.41
2022-08-20T22:02:01.245Z,101302.38
2022-08-20T22:04:35.226Z,101296.50
2022-08-20T22:07:03.478Z,101294.41
2022-08-20T22:09:35.108Z,101292.69
2022-08-20T22:12:07.488Z,101295.69
2022-08-20T22:14:34.421Z,101297.00
2022-08-20T22:17:01.331Z,101297.22
2022-08-20T22:19:30.729Z,101293.63
2022-08-20T22:24:27.091Z,101286.03
2022-08-20T22:26:54.228Z,101291.09
2022-08-20T22:29:21.216Z,101279.66
2022-08-20T22:31:50.850Z,101281.56
2022-08-20T22:34:22.441Z,101274.16
2022-08-20T22:36:54.052Z,101274.16
2022-08-20T22:39:21.090Z,101278.81
2022-08-20T22:41:47.988Z,101272.47
2022-08-20T22:44:14.872Z,101283.47
2022-08-20T22:46:48.153Z,101277.75
2022-08-20T22:49:22.610Z,101283.03
2022-08-20T22:51:49.600Z,101280.94
2022-08-20T22:54:22.351Z,101276.28
2022-08-20T22:56:50.544Z,101272.47
2022-08-20T22:59:21.265Z,101278.78
2022-08-20T23:01:53.015Z,101273.69
2022-08-20T23:04:30.413Z,101280.41
2022-08-20T23:07:02.393Z,101278.34
2022-08-20T23:09:30.328Z,101270.75
2022-08-20T23:11:57.532Z,101269.91
2022-08-20T23:14:27.031Z,101270.31
2022-08-20T23:17:13.630Z,101266.28
2022-08-20T23:19:45.538Z,101260.59
2022-08-20T23:22:13.277Z,101257.78
2022-08-20T23:24:40.786Z,101255.00
2022-08-20T23:27:13.514Z,101251.63
2022-08-20T23:29:40.793Z,101256.25
2022-08-20T23:32:07.895Z,101255.78
2022-08-20T23:34:34.820Z,101244.69
2022-08-20T23:37:05.267Z,101246.34
2022-08-20T23:39:32.322Z,101249.72
2022-08-20T23:42:00.563Z,101242.53
2022-08-20T23:44:28.501Z,101247.66
2022-08-20T23:46:59.525Z,101253.53
2022-08-20T23:49:28.306Z,101252.28
2022-08-20T23:52:00.673Z,101255.69
2022-08-20T23:54:30.158Z,101249.31
2022-08-20T23:56:57.659Z,101248.88
2022-08-20T23:59:27.267Z,101248.88
